sensor_id;sensor_type;location;lat;lon;timestamp;pressure;altitude;pressure_sealevel;temperature;humidity
20860;BME280;10590;48.154;11.514;2023-05-24T00:02:48;95830.81;;;13.76;71.23
20860;BME280;10590;48.154;11.514;2023-05-24T00:08:12;95835.78;;;13.65;71.20
20860;BME280;10590;48.154;11.514;2023-05-24T00:13:35;95831.56;;;13.97;70.08
20860;BME280;10590;48.154;11.514;2023-05-24T00:18:57;95829.09;;;13.92;70.11
20860;BME280;10590;48.154;11.514;2023-05-24T00:24:20;95819.66;;;13.86;70.22
20860;BME280;10590;48.154;11.514;2023-05-24T00:29:42;95822.88;;;13.47;71.94
20860;BME280;10590;48.154;11.514;2023-05-24T00:35:05;95820.50;;;13.66;71.06
20860;BME280;10590;48.154;11.514;2023-05-24T00:40:28;95820.75;;;13.73;71.83
20860;BME280;10590;48.154;11.514;2023-05-24T00:46:00;95816.69;;;13.67;71.20
20860;BME280;10590;48.154;11.514;2023-05-24T00:51:30;95821.28;;;13.66;71.10
20860;BME280;10590;48.154;11.514;2023-05-24T00:56:55;95820.91;;;13.56;71.81
20860;BME280;10590;48.154;11.514;2023-05-24T01:02:17;95812.13;;;13.67;71.39
20860;BME280;10590;48.154;11.514;2023-05-24T01:07:49;95811.81;;;13.81;70.60
20860;BME280;10590;48.154;11.514;2023-05-24T01:13:21;95806.53;;;13.39;72.46
20860;BME280;10590;48.154;11.514;2023-05-24T01:18:48;95803.63;;;13.03;74.26
20860;BME280;10590;48.154;11.514;2023-05-24T01:24:17;95800.00;;;13.28;73.28
20860;BME280;10590;48.154;11.514;2023-05-24T01:29:46;95793.78;;;13.36;72.62
20860;BME280;10590;48.154;11.514;2023-05-24T01:35:12;95798.28;;;13.45;72.68
20860;BME280;10590;48.154;11.514;2023-05-24T01:40:35;95800.00;;;13.28;73.11
20860;BME280;10590;48.154;11.514;2023-05-24T01:46:02;95794.25;;;13.38;72.48
20860;BME280;10590;48.154;11.514;2023-05-24T01:51:30;95798.94;;;13.42;72.61
20860;BME280;10590;48.154;11.514;2023-05-24T01:56:56;95801.38;;;13.67;71.71
20860;BME280;10590;48.154;11.514;2023-05-24T02:02:20;95814.16;;;13.50;72.64
20860;BME280;10590;48.154;11.514;2023-05-24T02:07:42;95802.06;;;13.44;72.87
20860;BME280;10590;48.154;11.514;2023-05-24T02:13:05;95809.78;;;13.45;72.11
20860;BME280;10590;48.154;11.514;2023-05-24T02:18:28;95805.47;;;13.32;73.19
20860;BME280;10590;48.154;11.514;2023-05-24T02:23:54;95802.84;;;13.44;72.15
20860;BME280;10590;48.154;11.514;2023-05-24T02:29:16;95803.38;;;13.37;72.78
20860;BME280;10590;48.154;11.514;2023-05-24T02:34:39;95803.38;;;13.37;72.93
20860;BME280;10590;48.154;11.514;2023-05-24T02:40:02;95802.06;;;13.44;72.56
20860;BME280;10590;48.154;11.514;2023-05-24T02:45:24;95795.81;;;13.39;72.54
20860;BME280;10590;48.154;11.514;2023-05-24T02:50:48;95793.97;;;13.31;72.83
20860;BME280;10590;48.154;11.514;2023-05-24T02:56:10;95792.16;;;13.23;73.12
20860;BME280;10590;48.154;11.514;2023-05-24T03:01:33;95784.19;;;12.85;75.09
20860;BME280;10590;48.154;11.514;2023-05-24T03:06:56;95792.63;;;12.96;74.30
20860;BME280;10590;48.154;11.514;2023-05-24T03:12:18;95792.47;;;12.92;74.69
20860;BME280;10590;48.154;11.514;2023-05-24T03:17:40;95789.03;;;13.21;73.56
20860;BME280;10590;48.154;11.514;2023-05-24T03:23:03;95792.88;;;12.82;74.77
20860;BME280;10590;48.154;11.514;2023-05-24T03:28:25;95794.66;;;12.69;75.34
20860;BME280;10590;48.154;11.514;2023-05-24T03:33:48;95797.41;;;12.61;76.04
20860;BME280;10590;48.154;11.514;2023-05-24T03:39:11;95798.09;;;12.79;74.25
20860;BME280;10590;48.154;11.514;2023-05-24T03:44:33;95801.13;;;12.68;74.65
20860;BME280;10590;48.154;11.514;2023-05-24T03:49:55;95810.31;;;12.59;75.23
20860;BME280;10590;48.154;11.514;2023-05-24T03:55:19;95813.19;;;12.83;74.34
20860;BME280;10590;48.154;11.514;2023-05-24T04:00:41;95817.44;;;12.55;75.99
20860;BME280;10590;48.154;11.514;2023-05-24T04:06:06;95819.50;;;12.79;74.81
20860;BME280;10590;48.154;11.514;2023-05-24T04:11:32;95832.09;;;12.78;74.85
20860;BME280;10590;48.154;11.514;2023-05-24T04:16:55;95823.00;;;12.70;75.02
20860;BME280;10590;48.154;11.514;2023-05-24T04:22:18;95825.38;;;12.72;74.73
20860;BME280;10590;48.154;11.514;2023-05-24T04:27:41;95827.72;;;12.44;74.74
20860;BME280;10590;48.154;11.514;2023-05-24T04:33:04;95831.09;;;12.62;73.58
20860;BME280;10590;48.154;11.514;2023-05-24T04:38:26;95818.50;;;12.62;73.00
20860;BME280;10590;48.154;11.514;2023-05-24T04:43:50;95821.84;;;12.80;73.44
20860;BME280;10590;48.154;11.514;2023-05-24T04:49:12;95835.16;;;12.30;72.76
20860;BME280;10590;48.154;11.514;2023-05-24T04:54:34;95834.00;;;12.77;70.93
20860;BME280;10590;48.154;11.514;2023-05-24T04:59:58;95833.50;;;12.84;71.15
20860;BME280;10590;48.154;11.514;2023-05-24T05:05:20;95833.44;;;12.63;71.16
20860;BME280;10590;48.154;11.514;2023-05-24T05:10:42;95841.06;;;12.82;71.38
20860;BME280;10590;48.154;11.514;2023-05-24T05:16:08;95836.78;;;12.90;70.63
20860;BME280;10590;48.154;11.514;2023-05-24T05:21:30;95837.94;;;13.10;70.49
20860;BME280;10590;48.154;11.514;2023-05-24T05:26:53;95843.66;;;13.29;69.18
20860;BME280;10590;48.154;11.514;2023-05-24T05:32:16;95842.25;;;12.93;69.23
20860;BME280;10590;48.154;11.514;2023-05-24T05:37:38;95844.63;;;12.95;69.26
20860;BME280;10590;48.154;11.514;2023-05-24T05:43:00;95843.00;;;13.32;67.75
20860;BME280;10590;48.154;11.514;2023-05-24T05:48:24;95835.94;;;12.98;69.29
20860;BME280;10590;48.154;11.514;2023-05-24T05:53:46;95827.25;;;13.30;69.02
20860;BME280;10590;48.154;11.514;2023-05-24T05:59:08;95824.50;;;13.18;69.33
20860;BME280;10590;48.154;11.514;2023-05-24T06:04:36;95820.50;;;13.66;66.99
20860;BME280;10590;48.154;11.514;2023-05-24T06:09:58;95817.88;;;13.57;68.57
20860;BME280;10590;48.154;11.514;2023-05-24T06:15:20;95815.81;;;14.53;65.21
20860;BME280;10590;48.154;11.514;2023-05-24T06:20:45;95819.13;;;15.23;63.67
20860;BME280;10590;48.154;11.514;2023-05-24T06:26:08;95817.25;;;14.63;63.24
20860;BME280;10590;48.154;11.514;2023-05-24T06:31:30;95817.72;;;14.65;64.31
20860;BME280;10590;48.154;11.514;2023-05-24T06:36:53;95820.72;;;14.51;64.64
20860;BME280;10590;48.154;11.514;2023-05-24T06:42:16;95820.41;;;14.08;66.13
20860;BME280;10590;48.154;11.514;2023-05-24T06:47:37;95826.69;;;13.79;66.62
20860;BME280;10590;48.154;11.514;2023-05-24T06:53:01;95828.78;;;14.51;65.37
20860;BME280;10590;48.154;11.514;2023-05-24T06:58:23;95830.16;;;14.82;64.91
20860;BME280;10590;48.154;11.514;2023-05-24T07:03:44;95835.97;;;14.96;63.58
20860;BME280;10590;48.154;11.514;2023-05-24T07:09:08;95840.34;;;14.76;65.10
20860;BME280;10590;48.154;11.514;2023-05-24T07:14:30;95838.56;;;14.92;63.90
20860;BME280;10590;48.154;11.514;2023-05-24T07:19:52;95848.47;;;14.55;65.96
20860;BME280;10590;48.154;11.514;2023-05-24T07:25:16;95843.81;;;14.19;65.99
20860;BME280;10590;48.154;11.514;2023-05-24T07:30:38;95843.72;;;15.50;60.77
20860;BME280;10590;48.154;11.514;2023-05-24T07:36:00;95849.47;;;15.36;60.72
20860;BME280;10590;48.154;11.514;2023-05-24T07:41:26;95850.94;;;15.21;62.43
20860;BME280;10590;48.154;11.514;2023-05-24T07:46:48;95850.97;;;14.85;63.48
20860;BME280;10590;48.154;11.514;2023-05-24T07:52:10;95840.22;;;14.73;62.14
20860;BME280;10590;48.154;11.514;2023-05-24T07:57:33;95847.31;;;15.42;62.13
20860;BME280;10590;48.154;11.514;2023-05-24T08:02:55;95850.53;;;15.07;62.06
20860;BME280;10590;48.154;11.514;2023-05-24T08:08:17;95852.28;;;15.15;60.28
20860;BME280;10590;48.154;11.514;2023-05-24T08:13:42;95859.09;;;15.89;57.59
20860;BME280;10590;48.154;11.514;2023-05-24T08:19:04;95861.97;;;15.97;56.92
20860;BME280;10590;48.154;11.514;2023-05-24T08:24:26;95861.41;;;16.19;56.81
20860;BME280;10590;48.154;11.514;2023-05-24T08:29:49;95865.78;;;15.96;56.42
20860;BME280;10590;48.154;11.514;2023-05-24T08:35:11;95868.09;;;15.81;57.35
20860;BME280;10590;48.154;11.514;2023-05-24T08:40:33;95866.09;;;14.89;60.79
20860;BME280;10590;48.154;11.514;2023-05-24T08:45:58;95875.00;;;14.57;62.29
20860;BME280;10590;48.154;11.514;2023-05-24T08:51:22;95879.56;;;14.11;63.08
20860;BME280;10590;48.154;11.514;2023-05-24T08:56:46;95871.16;;;14.00;64.17
20860;BME280;10590;48.154;11.514;2023-05-24T09:02:13;95864.81;;;14.50;63.75
20860;BME280;10590;48.154;11.514;2023-05-24T09:07:39;95868.31;;;15.12;59.59
20860;BME280;10590;48.154;11.514;2023-05-24T09:13:03;95877.63;;;15.14;59.75
20860;BME280;10590;48.154;11.514;2023-05-24T09:18:29;95873.19;;;15.58;57.88
20860;BME280;10590;48.154;11.514;2023-05-24T09:23:51;95879.53;;;15.02;59.87
20860;BME280;10590;48.154;11.514;2023-05-24T09:29:14;95875.94;;;14.97;60.13
20860;BME280;10590;48.154;11.514;2023-05-24T09:34:41;95879.88;;;14.88;60.80
20860;BME280;10590;48.154;11.514;2023-05-24T09:40:04;95884.22;;;14.80;62.15
20860;BME280;10590;48.154;11.514;2023-05-24T09:45:28;95885.28;;;14.43;61.07
20860;BME280;10590;48.154;11.514;2023-05-24T09:51:13;95872.38;;;14.36;61.70
20860;BME280;10590;48.154;11.514;2023-05-24T09:56:39;95887.00;;;14.26;61.57
20860;BME280;10590;48.154;11.514;2023-05-24T10:02:07;95882.28;;;14.23;61.22
20860;BME280;10590;48.154;11.514;2023-05-24T10:07:33;95885.44;;;13.92;63.82
20860;BME280;10590;48.154;11.514;2023-05-24T10:12:56;95885.22;;;13.97;64.50
20860;BME280;10590;48.154;11.514;2023-05-24T10:18:17;95896.16;;;13.71;66.53
20860;BME280;10590;48.154;11.514;2023-05-24T10:23:43;95903.03;;;13.81;66.96
20860;BME280;10590;48.154;11.514;2023-05-24T10:29:07;95905.22;;;14.21;64.96
20860;BME280;10590;48.154;11.514;2023-05-24T10:34:32;95897.09;;;14.42;62.29
20860;BME280;10590;48.154;11.514;2023-05-24T10:39:58;95893.03;;;14.69;61.50
20860;BME280;10590;48.154;11.514;2023-05-24T10:45:32;95891.50;;;14.80;61.04
20860;BME280;10590;48.154;11.514;2023-05-24T10:50:55;95899.28;;;14.48;59.92
20860;BME280;10590;48.154;11.514;2023-05-24T10:56:20;95897.53;;;14.77;60.52
20860;BME280;10590;48.154;11.514;2023-05-24T11:01:43;95896.28;;;14.29;62.43
20860;BME280;10590;48.154;11.514;2023-05-24T11:07:06;95903.72;;;14.89;58.96
20860;BME280;10590;48.154;11.514;2023-05-24T11:12:31;95900.63;;;14.66;60.54
20860;BME280;10590;48.154;11.514;2023-05-24T11:18:13;95890.50;;;14.84;59.30
20860;BME280;10590;48.154;11.514;2023-05-24T11:23:36;95897.94;;;14.66;58.97
20860;BME280;10590;48.154;11.514;2023-05-24T11:29:00;95898.94;;;14.17;60.32
20860;BME280;10590;48.154;11.514;2023-05-24T11:34:23;95894.13;;;14.43;59.55
20860;BME280;10590;48.154;11.514;2023-05-24T11:39:49;95897.09;;;14.42;59.44
20860;BME280;10590;48.154;11.514;2023-05-24T11:45:13;95894.34;;;14.50;59.35
20860;BME280;10590;48.154;11.514;2023-05-24T11:50:38;95893.19;;;14.96;58.50
20860;BME280;10590;48.154;11.514;2023-05-24T11:56:00;95893.78;;;15.54;56.82
20860;BME280;10590;48.154;11.514;2023-05-24T12:01:26;95889.13;;;15.39;53.48
20860;BME280;10590;48.154;11.514;2023-05-24T12:06:48;95892.28;;;15.17;53.83
20860;BME280;10590;48.154;11.514;2023-05-24T12:12:10;95897.31;;;15.18;54.93
20860;BME280;10590;48.154;11.514;2023-05-24T12:17:34;95894.63;;;14.82;54.95
20860;BME280;10590;48.154;11.514;2023-05-24T12:22:56;95894.97;;;15.29;54.58
20860;BME280;10590;48.154;11.514;2023-05-24T12:28:19;95894.75;;;14.85;55.47
20860;BME280;10590;48.154;11.514;2023-05-24T12:33:43;95902.25;;;14.92;55.48
20860;BME280;10590;48.154;11.514;2023-05-24T12:39:17;95904.38;;;14.41;56.92
20860;BME280;10590;48.154;11.514;2023-05-24T12:44:39;95900.59;;;14.42;58.49
20860;BME280;10590;48.154;11.514;2023-05-24T12:50:03;95896.22;;;14.83;55.34
20860;BME280;10590;48.154;11.514;2023-05-24T12:55:25;95892.06;;;14.85;54.67
20860;BME280;10590;48.154;11.514;2023-05-24T13:00:47;95883.75;;;15.27;53.94
20860;BME280;10590;48.154;11.514;2023-05-24T13:06:12;95881.59;;;15.45;53.09
20860;BME280;10590;48.154;11.514;2023-05-24T13:11:34;95878.72;;;16.34;50.13
20860;BME280;10590;48.154;11.514;2023-05-24T13:16:56;95882.63;;;16.36;50.97
20860;BME280;10590;48.154;11.514;2023-05-24T13:22:22;95873.56;;;16.13;49.95
20860;BME280;10590;48.154;11.514;2023-05-24T13:27:45;95876.22;;;15.97;48.99
20860;BME280;10590;48.154;11.514;2023-05-24T13:33:07;95883.66;;;15.88;49.76
20860;BME280;10590;48.154;11.514;2023-05-24T13:38:31;95876.50;;;15.80;48.89
20860;BME280;10590;48.154;11.514;2023-05-24T13:43:53;95877.44;;;16.00;48.08
20860;BME280;10590;48.154;11.514;2023-05-24T13:49:15;95884.91;;;16.34;47.16
20860;BME280;10590;48.154;11.514;2023-05-24T13:54:38;95880.47;;;15.46;47.47
20860;BME280;10590;48.154;11.514;2023-05-24T14:00:00;95879.59;;;15.29;48.00
20860;BME280;10590;48.154;11.514;2023-05-24T14:05:23;95891.44;;;15.77;47.64
20860;BME280;10590;48.154;11.514;2023-05-24T14:10:46;95889.56;;;15.41;48.39
20860;BME280;10590;48.154;11.514;2023-05-24T14:16:09;95893.22;;;15.73;48.26
20860;BME280;10590;48.154;11.514;2023-05-24T14:21:31;95886.88;;;15.93;47.71
20860;BME280;10590;48.154;11.514;2023-05-24T14:26:54;95894.50;;;16.19;48.56
20860;BME280;10590;48.154;11.514;2023-05-24T14:32:16;95884.81;;;16.03;48.55
20860;BME280;10590;48.154;11.514;2023-05-24T14:37:39;95883.16;;;16.26;47.07
20860;BME280;10590;48.154;11.514;2023-05-24T14:43:03;95873.59;;;16.29;46.86
20860;BME280;10590;48.154;11.514;2023-05-24T14:48:25;95873.53;;;15.69;46.92
20860;BME280;10590;48.154;11.514;2023-05-24T14:53:47;95871.50;;;16.22;46.22
20860;BME280;10590;48.154;11.514;2023-05-24T14:59:10;95877.00;;;15.70;49.03
20860;BME280;10590;48.154;11.514;2023-05-24T15:04:32;95870.06;;;18.08;43.26
20860;BME280;10590;48.154;11.514;2023-05-24T15:09:54;95864.63;;;17.50;44.00
20860;BME280;10590;48.154;11.514;2023-05-24T15:15:17;95857.88;;;17.60;46.08
20860;BME280;10590;48.154;11.514;2023-05-24T15:20:39;95852.16;;;18.62;42.13
20860;BME280;10590;48.154;11.514;2023-05-24T15:26:01;95862.22;;;16.79;44.24
20860;BME280;10590;48.154;11.514;2023-05-24T15:31:25;95854.63;;;18.09;41.56
20860;BME280;10590;48.154;11.514;2023-05-24T15:36:47;95854.72;;;17.93;41.66
20860;BME280;10590;48.154;11.514;2023-05-24T15:42:09;95847.41;;;19.87;37.78
20860;BME280;10590;48.154;11.514;2023-05-24T15:47:32;95837.41;;;18.59;39.43
20860;BME280;10590;48.154;11.514;2023-05-24T15:52:57;95847.16;;;17.44;42.12
20860;BME280;10590;48.154;11.514;2023-05-24T15:58:19;95835.31;;;18.07;41.04
20860;BME280;10590;48.154;11.514;2023-05-24T16:03:42;95834.59;;;17.52;42.54
20860;BME280;10590;48.154;11.514;2023-05-24T16:09:04;95839.84;;;17.45;42.51
20860;BME280;10590;48.154;11.514;2023-05-24T16:14:27;95842.06;;;17.24;43.68
20860;BME280;10590;48.154;11.514;2023-05-24T16:19:51;95830.28;;;16.97;44.27
20860;BME280;10590;48.154;11.514;2023-05-24T16:25:13;95828.63;;;16.92;45.11
20860;BME280;10590;48.154;11.514;2023-05-24T16:30:35;95818.56;;;16.58;44.27
20860;BME280;10590;48.154;11.514;2023-05-24T16:36:02;95825.16;;;16.60;45.60
20860;BME280;10590;48.154;11.514;2023-05-24T16:41:24;95819.47;;;15.74;47.14
20860;BME280;10590;48.154;11.514;2023-05-24T16:46:46;95821.69;;;16.00;46.55
20860;BME280;10590;48.154;11.514;2023-05-24T16:52:10;95819.81;;;15.73;48.48
20860;BME280;10590;48.154;11.514;2023-05-24T16:57:31;95817.44;;;15.99;49.25
20860;BME280;10590;48.154;11.514;2023-05-24T17:02:54;95825.19;;;15.20;49.52
20860;BME280;10590;48.154;11.514;2023-05-24T17:08:20;95821.63;;;14.68;50.86
20860;BME280;10590;48.154;11.514;2023-05-24T17:13:42;95824.00;;;14.93;50.66
20860;BME280;10590;48.154;11.514;2023-05-24T17:19:04;95829.13;;;14.62;52.36
20860;BME280;10590;48.154;11.514;2023-05-24T17:24:27;95832.41;;;14.92;51.15
20860;BME280;10590;48.154;11.514;2023-05-24T17:29:49;95839.72;;;15.32;50.91
20860;BME280;10590;48.154;11.514;2023-05-24T17:35:11;95836.88;;;14.88;52.15
20860;BME280;10590;48.154;11.514;2023-05-24T17:40:34;95846.72;;;14.84;52.00
20860;BME280;10590;48.154;11.514;2023-05-24T17:45:57;95839.34;;;14.81;51.60
20860;BME280;10590;48.154;11.514;2023-05-24T17:51:22;95844.09;;;15.24;51.24
20860;BME280;10590;48.154;11.514;2023-05-24T17:56:46;95839.31;;;15.05;50.40
20860;BME280;10590;48.154;11.514;2023-05-24T18:02:08;95849.94;;;15.14;50.33
20860;BME280;10590;48.154;11.514;2023-05-24T18:07:30;95845.00;;;15.28;50.18
20860;BME280;10590;48.154;11.514;2023-05-24T18:12:53;95848.69;;;15.23;50.18
20860;BME280;10590;48.154;11.514;2023-05-24T18:18:15;95860.56;;;15.22;50.96
20860;BME280;10590;48.154;11.514;2023-05-24T18:23:37;95870.75;;;14.68;50.11
20860;BME280;10590;48.154;11.514;2023-05-24T18:29:01;95879.13;;;14.54;50.68
20860;BME280;10590;48.154;11.514;2023-05-24T18:34:23;95887.13;;;14.30;50.89
20860;BME280;10590;48.154;11.514;2023-05-24T18:39:45;95900.75;;;14.25;51.57
20860;BME280;10590;48.154;11.514;2023-05-24T18:45:09;95901.94;;;14.15;51.51
20860;BME280;10590;48.154;11.514;2023-05-24T18:50:31;95902.44;;;13.96;53.01
20860;BME280;10590;48.154;11.514;2023-05-24T18:55:53;95904.00;;;13.97;52.30
20860;BME280;10590;48.154;11.514;2023-05-24T19:01:16;95918.00;;;13.82;53.91
20860;BME280;10590;48.154;11.514;2023-05-24T19:06:40;95922.19;;;13.71;56.80
20860;BME280;10590;48.154;11.514;2023-05-24T19:12:02;95916.63;;;13.34;59.87
20860;BME280;10590;48.154;11.514;2023-05-24T19:17:25;95931.19;;;13.16;61.43
20860;BME280;10590;48.154;11.514;2023-05-24T19:22:47;95924.19;;;12.94;61.43
20860;BME280;10590;48.154;11.514;2023-05-24T19:28:09;95930.19;;;12.91;62.05
20860;BME280;10590;48.154;11.514;2023-05-24T19:33:35;95934.75;;;12.91;61.78
20860;BME280;10590;48.154;11.514;2023-05-24T19:38:57;95946.31;;;12.74;62.55
20860;BME280;10590;48.154;11.514;2023-05-24T19:44:20;95952.28;;;12.80;62.48
20860;BME280;10590;48.154;11.514;2023-05-24T19:50:06;95960.81;;;12.73;62.42
20860;BME280;10590;48.154;11.514;2023-05-24T19:55:32;95963.66;;;12.68;62.69
20860;BME280;10590;48.154;11.514;2023-05-24T20:00:55;95967.88;;;12.77;62.75
20860;BME280;10590;48.154;11.514;2023-05-24T20:06:33;95964.72;;;12.84;62.32
20860;BME280;10590;48.154;11.514;2023-05-24T20:11:56;95966.59;;;12.84;62.50
20860;BME280;10590;48.154;11.514;2023-05-24T20:17:21;95967.00;;;12.56;63.80
20860;BME280;10590;48.154;11.514;2023-05-24T20:22:45;95962.72;;;12.64;63.76
20860;BME280;10590;48.154;11.514;2023-05-24T20:28:07;95954.88;;;12.59;62.97
20860;BME280;10590;48.154;11.514;2023-05-24T20:33:29;95951.88;;;12.60;63.88
20860;BME280;10590;48.154;11.514;2023-05-24T20:38:54;95952.25;;;12.33;64.95
20860;BME280;10590;48.154;11.514;2023-05-24T20:44:16;95944.41;;;12.10;65.99
20860;BME280;10590;48.154;11.514;2023-05-24T20:49:38;95943.94;;;12.17;65.57
20860;BME280;10590;48.154;11.514;2023-05-24T20:55:01;95952.09;;;12.38;64.71
20860;BME280;10590;48.154;11.514;2023-05-24T21:00:25;95946.91;;;12.33;64.41
20860;BME280;10590;48.154;11.514;2023-05-24T21:05:47;95951.31;;;12.29;64.43
20860;BME280;10590;48.154;11.514;2023-05-24T21:11:11;95959.53;;;12.15;64.87
20860;BME280;10590;48.154;11.514;2023-05-24T21:16:33;95956.16;;;12.44;63.79
20860;BME280;10590;48.154;11.514;2023-05-24T21:21:55;95957.31;;;12.26;64.96
20860;BME280;10590;48.154;11.514;2023-05-24T21:27:19;95959.97;;;12.34;63.31
20860;BME280;10590;48.154;11.514;2023-05-24T21:32:41;95971.16;;;12.28;64.27
20860;BME280;10590;48.154;11.514;2023-05-24T21:38:03;95964.06;;;12.32;63.82
20860;BME280;10590;48.154;11.514;2023-05-24T21:43:26;95967.84;;;12.05;64.37
20860;BME280;10590;48.154;11.514;2023-05-24T21:48:48;95966.75;;;12.15;64.06
20860;BME280;10590;48.154;11.514;2023-05-24T21:54:10;95973.81;;;12.28;62.91
20860;BME280;10590;48.154;11.514;2023-05-24T21:59:33;95977.75;;;12.39;63.01
20860;BME280;10590;48.154;11.514;2023-05-24T22:04:55;95968.63;;;12.05;63.96
20860;BME280;10590;48.154;11.514;2023-05-24T22:10:17;95979.03;;;12.16;63.20
20860;BME280;10590;48.154;11.514;2023-05-24T22:15:40;95970.19;;;12.06;63.40
20860;BME280;10590;48.154;11.514;2023-05-24T22:21:02;95975.41;;;12.20;62.93
20860;BME280;10590;48.154;11.514;2023-05-24T22:26:24;95975.72;;;12.01;63.19
20860;BME280;10590;48.154;11.514;2023-05-24T22:31:47;95975.41;;;12.20;62.38
20860;BME280;10590;48.154;11.514;2023-05-24T22:37:09;95977.47;;;12.15;61.94
20860;BME280;10590;48.154;11.514;2023-05-24T22:42:31;95977.13;;;12.25;62.62
20860;BME280;10590;48.154;11.514;2023-05-24T22:47:54;95969.44;;;12.23;61.39
20860;BME280;10590;48.154;11.514;2023-05-24T22:53:17;95971.00;;;12.07;62.76
20860;BME280;10590;48.154;11.514;2023-05-24T22:58:39;95961.53;;;12.35;61.13
20860;BME280;10590;48.154;11.514;2023-05-24T23:04:03;95964.69;;;12.03;62.17
20860;BME280;10590;48.154;11.514;2023-05-24T23:09:25;95959.97;;;12.08;60.72
20860;BME280;10590;48.154;11.514;2023-05-24T23:14:53;95967.53;;;11.98;61.45
20860;BME280;10590;48.154;11.514;2023-05-24T23:20:19;95956.19;;;12.09;60.36
20860;BME280;10590;48.154;11.514;2023-05-24T23:25:41;95957.31;;;11.91;59.33
20860;BME280;10590;48.154;11.514;2023-05-24T23:31:03;95955.38;;;11.74;58.58
20860;BME280;10590;48.154;11.514;2023-05-24T23:36:26;95949.13;;;11.79;59.38
20860;BME280;10590;48.154;11.514;2023-05-24T23:41:48;95953.84;;;11.91;59.01
20860;BME280;10590;48.154;11.514;2023-05-24T23:47:10;95960.41;;;11.59;59.63
20860;BME280;10590;48.154;11.514;2023-05-24T23:52:34;95952.22;;;11.64;58.55
20860;BME280;10590;48.154;11.514;2023-05-24T23:57:55;95955.69;;;11.73;58.91
